createdAt,value
2022-11-05T00:02:33.910Z,0.87
2022-11-05T00:05:19.786Z,0.50
2022-11-05T00:08:06.870Z,0.77
2022-11-05T00:10:35.976Z,0.80
2022-11-05T00:13:22.265Z,0.80
2022-11-05T00:16:07.939Z,0.80
2022-11-05T00:18:35.325Z,0.80
2022-11-05T00:21:02.715Z,0.90
2022-11-05T00:23:48.238Z,0.90
2022-11-05T00:26:15.591Z,0.83
2022-11-05T00:28:44.116Z,0.90
2022-11-05T00:31:13.320Z,1.30
2022-11-05T00:33:41.747Z,0.70
2022-11-05T00:36:10.161Z,0.90
2022-11-05T00:38:37.663Z,1.00
2022-11-05T00:41:05.020Z,0.80
2022-11-05T00:43:50.939Z,0.80
2022-11-05T00:46:18.307Z,1.00
2022-11-05T00:49:04.230Z,0.97
2022-11-05T00:51:31.631Z,0.93
2022-11-05T00:53:59.023Z,0.90
2022-11-05T00:56:26.435Z,0.73
2022-11-05T00:58:53.877Z,0.90
2022-11-05T01:01:21.250Z,1.10
2022-11-05T01:03:51.634Z,0.80
2022-11-05T01:06:19.135Z,1.10
2022-11-05T01:08:46.751Z,1.10
2022-11-05T01:11:33.337Z,1.00
2022-11-05T01:14:02.069Z,1.07
2022-11-05T01:16:30.226Z,1.30
2022-11-05T01:18:57.591Z,1.30
2022-11-05T01:21:24.852Z,0.90
2022-11-05T01:23:52.194Z,1.00
2022-11-05T01:26:19.571Z,1.10
2022-11-05T01:28:51.226Z,1.10
2022-11-05T01:31:18.670Z,1.03
2022-11-05T01:33:46.046Z,1.00
2022-11-05T01:36:13.389Z,1.00
2022-11-05T01:38:40.836Z,1.00
2022-11-05T01:41:08.573Z,1.00
2022-11-05T01:43:54.633Z,1.23
2022-11-05T01:46:24.575Z,0.97
2022-11-05T01:48:55.201Z,0.80
2022-11-05T01:51:27.279Z,1.00
2022-11-05T01:53:58.067Z,1.00
2022-11-05T01:56:29.592Z,0.90
2022-11-05T01:59:17.161Z,1.20
2022-11-05T02:01:45.435Z,0.90
2022-11-05T02:04:15.600Z,0.90
2022-11-05T02:06:46.399Z,0.80
2022-11-05T02:09:19.990Z,1.00
2022-11-05T02:11:47.859Z,1.10
2022-11-05T02:14:15.291Z,1.30
2022-11-05T02:16:46.187Z,0.93
2022-11-05T02:19:25.733Z,1.07
2022-11-05T02:22:03.139Z,1.00
2022-11-05T02:24:30.439Z,0.90
2022-11-05T02:27:16.119Z,0.90
2022-11-05T02:29:53.846Z,0.70
2022-11-05T02:32:27.280Z,0.83
2022-11-05T02:35:02.862Z,0.90
2022-11-05T02:37:39.566Z,0.70
2022-11-05T02:40:16.672Z,1.07
2022-11-05T02:42:55.021Z,0.70
2022-11-05T02:45:22.355Z,0.90
2022-11-05T02:47:57.478Z,0.77
2022-11-05T02:50:24.777Z,0.60
2022-11-05T02:53:04.373Z,1.20
2022-11-05T02:55:39.722Z,0.80
2022-11-05T02:58:07.160Z,0.80
2022-11-05T03:00:54.833Z,0.73
2022-11-05T03:03:30.660Z,0.70
2022-11-05T03:06:16.627Z,0.70
2022-11-05T03:08:43.951Z,0.70
2022-11-05T03:11:11.307Z,0.67
2022-11-05T03:13:44.136Z,0.90
2022-11-05T03:16:16.834Z,0.70
2022-11-05T03:19:07.133Z,0.70
2022-11-05T03:21:41.348Z,0.60
2022-11-05T03:24:17.543Z,0.60
2022-11-05T03:26:50.699Z,1.10
2022-11-05T03:29:24.208Z,0.90
2022-11-05T03:31:53.371Z,0.60
2022-11-05T03:34:22.749Z,0.70
2022-11-05T03:36:52.738Z,0.70
2022-11-05T03:39:25.140Z,0.53
2022-11-05T03:41:53.290Z,0.70
2022-11-05T03:44:24.507Z,1.03
2022-11-05T03:46:52.666Z,0.90
2022-11-05T03:49:22.270Z,0.67
2022-11-05T03:51:54.318Z,0.90
2022-11-05T03:54:21.874Z,0.83
2022-11-05T03:57:07.767Z,0.80
2022-11-05T03:59:42.574Z,0.90
2022-11-05T04:02:11.046Z,0.90
2022-11-05T04:04:38.874Z,1.03
2022-11-05T04:07:25.315Z,0.90
2022-11-05T04:10:11.378Z,0.90
2022-11-05T04:12:57.457Z,0.70
2022-11-05T04:15:24.931Z,0.90
2022-11-05T04:17:52.427Z,0.80
2022-11-05T04:20:38.414Z,0.70
2022-11-05T04:23:25.308Z,1.00
2022-11-05T04:25:52.671Z,0.80
2022-11-05T04:28:20.253Z,0.80
2022-11-05T04:30:47.718Z,0.80
2022-11-05T04:33:16.392Z,0.93
2022-11-05T04:35:49.854Z,0.93
2022-11-05T04:38:19.088Z,0.80
2022-11-05T04:40:47.676Z,0.90
2022-11-05T04:43:17.832Z,1.00
2022-11-05T04:45:45.925Z,0.70
2022-11-05T04:48:13.298Z,0.90
2022-11-05T04:50:40.755Z,1.00
2022-11-05T04:53:08.266Z,1.00
2022-11-05T04:55:35.721Z,0.87
2022-11-05T04:58:03.055Z,0.90
2022-11-05T05:00:30.496Z,0.70
2022-11-05T05:02:57.977Z,0.73
2022-11-05T05:05:25.391Z,0.53
2022-11-05T05:07:52.831Z,0.80
2022-11-05T05:10:20.161Z,0.80
2022-11-05T05:12:48.551Z,0.70
2022-11-05T05:15:15.879Z,1.10
2022-11-05T05:17:43.124Z,0.80
2022-11-05T05:20:29.185Z,0.90
2022-11-05T05:22:56.637Z,0.80
2022-11-05T05:25:24.207Z,0.80
2022-11-05T05:27:51.554Z,0.87
2022-11-05T05:30:18.941Z,0.90
2022-11-05T05:32:46.742Z,0.90
2022-11-05T05:35:14.079Z,1.00
2022-11-05T05:37:41.510Z,1.30
2022-11-05T05:40:09.298Z,1.00
2022-11-05T05:42:42.718Z,0.83
2022-11-05T05:45:10.866Z,0.80
2022-11-05T05:47:38.161Z,1.20
2022-11-05T05:50:05.628Z,1.10
2022-11-05T05:52:32.979Z,1.00
2022-11-05T05:55:00.280Z,0.90
2022-11-05T05:57:30.442Z,1.30
2022-11-05T05:59:57.839Z,0.90
2022-11-05T06:02:25.330Z,0.90
2022-11-05T06:04:52.794Z,2.30
2022-11-05T06:07:20.133Z,0.80
2022-11-05T06:09:47.517Z,0.90
2022-11-05T06:12:14.943Z,1.10
2022-11-05T06:14:42.391Z,0.80
2022-11-05T06:17:09.859Z,0.97
2022-11-05T06:19:37.237Z,0.97
2022-11-05T06:22:04.585Z,1.03
2022-11-05T06:24:31.935Z,0.90
2022-11-05T06:26:59.295Z,0.80
2022-11-05T06:29:26.604Z,1.00
2022-11-05T06:31:54.059Z,0.87
2022-11-05T06:34:21.375Z,0.70
2022-11-05T06:36:48.665Z,0.80
2022-11-05T06:39:16.084Z,0.77
2022-11-05T06:42:11.884Z,0.80
2022-11-05T06:44:32.257Z,0.80
2022-11-05T06:47:00.390Z,0.90
2022-11-05T06:49:27.808Z,0.90
2022-11-05T06:51:55.190Z,1.20
2022-11-05T06:54:22.505Z,1.20
2022-11-05T06:56:49.835Z,1.27
2022-11-05T06:59:17.185Z,1.00
2022-11-05T07:01:44.629Z,0.90
2022-11-05T07:04:15.024Z,0.93
2022-11-05T07:06:42.483Z,0.80
2022-11-05T07:09:09.811Z,1.00
2022-11-05T07:11:37.189Z,1.10
2022-11-05T07:14:04.691Z,0.90
2022-11-05T07:16:32.048Z,1.10
2022-11-05T07:18:59.455Z,1.03
2022-11-05T07:21:26.851Z,1.10
2022-11-05T07:23:57.248Z,0.80
2022-11-05T07:26:24.593Z,0.77
2022-11-05T07:28:52.109Z,0.77
2022-11-05T07:31:19.594Z,0.80
2022-11-05T07:33:46.906Z,0.90
2022-11-05T07:36:14.906Z,0.73
2022-11-05T07:38:42.245Z,0.77
2022-11-05T07:41:09.583Z,0.90
2022-11-05T07:43:37.013Z,0.77
2022-11-05T07:46:04.306Z,0.70
2022-11-05T07:48:31.582Z,0.63
2022-11-05T07:50:59.011Z,0.97
2022-11-05T07:53:26.449Z,0.80
2022-11-05T07:55:53.933Z,0.87
2022-11-05T07:58:21.244Z,0.63
2022-11-05T08:00:48.816Z,0.70
2022-11-05T08:03:17.483Z,1.00
2022-11-05T08:05:46.774Z,1.10
2022-11-05T08:08:15.212Z,1.07
2022-11-05T08:10:42.745Z,0.90
2022-11-05T08:13:10.735Z,1.00
2022-11-05T08:15:38.410Z,1.03
2022-11-05T08:18:09.664Z,1.07
2022-11-05T08:20:38.546Z,0.90
2022-11-05T08:23:06.255Z,0.73
2022-11-05T08:25:33.779Z,0.60
2022-11-05T08:28:02.614Z,1.00
2022-11-05T08:30:30.057Z,0.90
2022-11-05T08:33:02.170Z,1.00
2022-11-05T08:35:30.116Z,0.80
2022-11-05T08:38:02.794Z,0.63
2022-11-05T08:40:31.107Z,1.13
2022-11-05T08:42:59.224Z,1.20
2022-11-05T08:45:27.432Z,1.00
2022-11-05T08:48:00.784Z,0.80
2022-11-05T08:50:28.397Z,0.80
2022-11-05T08:52:55.828Z,1.03
2022-11-05T08:55:23.192Z,0.70
2022-11-05T08:57:55.478Z,0.80
2022-11-05T09:00:22.873Z,1.03
2022-11-05T09:02:50.389Z,0.80
2022-11-05T09:05:17.704Z,0.80
2022-11-05T09:07:45.175Z,1.87
2022-11-05T09:10:12.541Z,1.20
2022-11-05T09:12:39.873Z,0.90
2022-11-05T09:15:07.438Z,1.03
2022-11-05T09:17:35.174Z,1.13
2022-11-05T09:20:03.664Z,1.83
2022-11-05T09:22:31.059Z,0.87
2022-11-05T09:24:58.435Z,0.90
2022-11-05T09:27:26.532Z,0.60
2022-11-05T09:29:53.932Z,0.70
2022-11-05T09:32:23.264Z,0.80
2022-11-05T09:34:50.915Z,0.87
2022-11-05T09:37:18.464Z,0.97
2022-11-05T09:39:45.860Z,0.73
2022-11-05T09:42:14.535Z,0.60
2022-11-05T09:44:47.784Z,0.90
2022-11-05T09:47:25.029Z,0.60
2022-11-05T09:49:54.539Z,0.80
2022-11-05T09:52:23.452Z,0.70
2022-11-05T09:54:51.634Z,1.37
2022-11-05T09:57:22.497Z,0.53
2022-11-05T09:59:54.381Z,0.60
2022-11-05T10:02:24.385Z,0.60
2022-11-05T10:04:53.827Z,0.80
2022-11-05T10:07:23.768Z,0.93
2022-11-05T10:09:54.694Z,0.60
2022-11-05T10:12:24.964Z,0.60
2022-11-05T10:14:58.120Z,0.60
2022-11-05T10:17:27.116Z,0.50
2022-11-05T10:20:00.774Z,0.70
2022-11-05T10:22:28.080Z,0.70
2022-11-05T10:24:55.966Z,0.70
2022-11-05T10:27:25.233Z,0.70
2022-11-05T10:29:52.673Z,0.70
2022-11-05T10:32:31.159Z,0.80
2022-11-05T10:35:00.610Z,0.90
2022-11-05T10:37:28.194Z,0.70
2022-11-05T10:39:56.077Z,0.90
2022-11-05T10:42:42.268Z,1.00
2022-11-05T10:45:12.335Z,0.70
2022-11-05T10:47:39.688Z,0.63
2022-11-05T10:50:12.298Z,0.67
2022-11-05T10:52:42.929Z,0.60
2022-11-05T10:55:22.549Z,0.70
2022-11-05T10:57:50.011Z,0.50
2022-11-05T11:00:18.214Z,0.43
2022-11-05T11:03:05.875Z,0.63
2022-11-05T11:05:37.911Z,0.70
2022-11-05T11:08:14.450Z,0.60
2022-11-05T11:10:50.786Z,0.70
2022-11-05T11:13:22.669Z,0.60
2022-11-05T11:15:53.230Z,0.60
2022-11-05T11:18:26.484Z,0.60
2022-11-05T11:20:53.909Z,0.70
2022-11-05T11:23:21.244Z,0.57
2022-11-05T11:25:48.969Z,0.50
2022-11-05T11:28:18.885Z,0.50
2022-11-05T11:30:50.824Z,0.60
2022-11-05T11:33:21.198Z,0.70
2022-11-05T11:35:48.606Z,0.50
2022-11-05T11:38:17.037Z,0.50
2022-11-05T11:40:44.666Z,0.60
2022-11-05T11:43:31.525Z,0.43
2022-11-05T11:46:04.906Z,0.50
2022-11-05T11:48:35.584Z,0.40
2022-11-05T11:51:16.645Z,0.47
2022-11-05T11:53:44.020Z,0.43
2022-11-05T11:56:15.876Z,0.40
2022-11-05T11:58:43.235Z,0.50
2022-11-05T12:01:10.541Z,0.47
2022-11-05T12:04:01.164Z,0.50
2022-11-05T12:06:39.478Z,0.40
2022-11-05T12:09:15.429Z,0.40
2022-11-05T12:11:54.982Z,0.50
2022-11-05T12:14:22.303Z,0.47
2022-11-05T12:16:55.385Z,0.40
2022-11-05T12:19:32.789Z,0.40
2022-11-05T12:22:00.093Z,0.40
2022-11-05T12:24:33.525Z,0.40
2022-11-05T12:27:14.865Z,0.40
2022-11-05T12:29:52.065Z,0.40
2022-11-05T12:32:34.605Z,0.30
2022-11-05T12:35:07.798Z,0.50
2022-11-05T12:37:35.213Z,0.30
2022-11-05T12:40:05.088Z,0.50
2022-11-05T12:42:51.043Z,0.40
2022-11-05T12:45:18.351Z,0.40
2022-11-05T12:48:04.308Z,0.40
2022-11-05T12:50:40.529Z,0.30
2022-11-05T12:53:14.259Z,0.40
2022-11-05T12:55:48.326Z,0.30
2022-11-05T12:58:20.600Z,0.50
2022-11-05T13:00:51.190Z,0.30
2022-11-05T13:03:18.590Z,0.47
2022-11-05T13:05:51.984Z,0.40
2022-11-05T13:08:22.553Z,0.30
2022-11-05T13:10:53.372Z,0.30
2022-11-05T13:13:30.118Z,0.30
2022-11-05T13:16:04.684Z,0.30
2022-11-05T13:18:44.724Z,0.30
2022-11-05T13:21:12.525Z,0.40
2022-11-05T13:23:47.020Z,0.37
2022-11-05T13:26:19.668Z,0.40
2022-11-05T13:29:04.987Z,0.30
2022-11-05T13:31:37.899Z,0.40
2022-11-05T13:34:11.735Z,0.27
2022-11-05T13:37:26.457Z,0.30
2022-11-05T13:40:01.798Z,0.20
2022-11-05T13:42:34.798Z,0.30
2022-11-05T13:45:13.799Z,0.50
2022-11-05T13:47:43.641Z,0.50
2022-11-05T13:50:10.924Z,0.27
2022-11-05T13:52:47.375Z,0.37
2022-11-05T13:55:34.985Z,0.20
2022-11-05T13:58:05.215Z,0.43
2022-11-05T14:00:36.019Z,0.60
2022-11-05T14:03:05.673Z,0.40
2022-11-05T14:05:35.573Z,0.37
2022-11-05T14:08:11.094Z,0.40
2022-11-05T14:10:42.682Z,0.40
2022-11-05T14:13:22.053Z,0.20
2022-11-05T14:16:06.667Z,0.30
2022-11-05T14:18:37.207Z,0.33
2022-11-05T14:21:05.676Z,0.30
2022-11-05T14:23:40.150Z,0.37
2022-11-05T14:26:14.856Z,0.40
2022-11-05T14:28:46.736Z,0.30
2022-11-05T14:31:14.075Z,0.30
2022-11-05T14:33:55.129Z,0.30
2022-11-05T14:36:22.583Z,0.37
2022-11-05T14:38:54.330Z,0.33
2022-11-05T14:41:21.982Z,0.40
2022-11-05T14:44:05.773Z,0.30
2022-11-05T14:46:43.798Z,0.40
2022-11-05T14:49:17.520Z,0.40
2022-11-05T14:51:46.014Z,0.40
2022-11-05T14:54:16.214Z,0.40
2022-11-05T14:56:45.038Z,0.37
2022-11-05T14:59:24.515Z,0.40
2022-11-05T15:02:10.461Z,0.40
2022-11-05T15:04:42.729Z,0.30
2022-11-05T15:07:10.086Z,0.30
2022-11-05T15:09:43.693Z,0.40
2022-11-05T15:12:20.254Z,0.40
2022-11-05T15:15:01.143Z,0.40
2022-11-05T15:17:31.045Z,0.50
2022-11-05T15:20:11.204Z,0.33
2022-11-05T15:22:41.142Z,0.30
2022-11-05T15:25:16.893Z,0.20
2022-11-05T15:27:50.456Z,0.30
2022-11-05T15:30:22.384Z,0.23
2022-11-05T15:32:49.979Z,0.30
2022-11-05T15:35:18.803Z,0.30
2022-11-05T15:37:54.670Z,0.30
2022-11-05T15:40:26.967Z,0.40
2022-11-05T15:43:10.118Z,0.30
2022-11-05T15:45:37.818Z,0.33
2022-11-05T15:48:13.305Z,0.30
2022-11-05T15:50:41.153Z,0.40
2022-11-05T15:53:41.672Z,0.50
2022-11-05T15:56:14.785Z,0.37
2022-11-05T15:58:47.209Z,0.40
2022-11-05T16:01:28.101Z,0.30
2022-11-05T16:03:59.446Z,0.33
2022-11-05T16:06:29.883Z,0.30
2022-11-05T16:08:57.245Z,0.43
2022-11-05T16:11:26.003Z,0.30
2022-11-05T16:13:53.766Z,0.53
2022-11-05T16:16:21.271Z,0.50
2022-11-05T16:18:48.846Z,0.67
2022-11-05T16:21:18.716Z,0.63
2022-11-05T16:23:53.167Z,0.47
2022-11-05T16:27:01.928Z,0.63
2022-11-05T16:29:54.642Z,1.20
2022-11-05T16:32:29.814Z,0.80
2022-11-05T16:34:59.573Z,0.60
2022-11-05T16:37:27.833Z,0.70
2022-11-05T16:39:56.393Z,0.30
2022-11-05T16:42:23.766Z,0.40
2022-11-05T16:44:51.846Z,0.60
2022-11-05T16:47:19.532Z,0.50
2022-11-05T16:49:48.274Z,0.50
2022-11-05T16:52:15.799Z,0.50
2022-11-05T16:54:43.478Z,0.50
2022-11-05T16:57:21.679Z,0.60
2022-11-05T16:59:49.025Z,0.80
2022-11-05T17:02:16.550Z,0.60
2022-11-05T17:04:43.951Z,0.70
2022-11-05T17:07:11.347Z,0.60
2022-11-05T17:09:38.837Z,0.80
2022-11-05T17:12:06.280Z,1.00
2022-11-05T17:14:33.637Z,0.77
2022-11-05T17:17:01.486Z,0.83
2022-11-05T17:19:28.883Z,0.90
2022-11-05T17:21:56.299Z,0.83
2022-11-05T17:24:23.819Z,0.73
2022-11-05T17:26:51.320Z,0.67
2022-11-05T17:29:18.747Z,0.70
2022-11-05T17:31:46.091Z,0.80
2022-11-05T17:34:13.463Z,0.70
2022-11-05T17:36:40.879Z,1.10
2022-11-05T17:39:08.404Z,1.10
2022-11-05T17:41:35.723Z,0.50
2022-11-05T17:44:05.918Z,0.63
2022-11-05T17:46:33.367Z,0.57
2022-11-05T17:49:00.759Z,0.60
2022-11-05T17:51:28.185Z,0.60
2022-11-05T17:53:55.914Z,0.50
2022-11-05T17:56:33.511Z,0.70
2022-11-05T17:59:03.091Z,0.80
2022-11-05T18:01:31.494Z,0.80
2022-11-05T18:04:03.783Z,0.60
2022-11-05T18:06:36.004Z,0.50
2022-11-05T18:09:03.638Z,0.67
2022-11-05T18:11:31.613Z,0.50
2022-11-05T18:13:59.127Z,0.40
2022-11-05T18:16:26.477Z,0.50
2022-11-05T18:18:53.860Z,0.50
2022-11-05T18:21:21.236Z,0.50
2022-11-05T18:23:48.594Z,0.40
2022-11-05T18:26:16.773Z,0.50
2022-11-05T18:28:44.512Z,0.50
2022-11-05T18:31:21.489Z,0.60
2022-11-05T18:33:50.043Z,1.07
2022-11-05T18:36:18.819Z,0.70
2022-11-05T18:38:46.279Z,0.70
2022-11-05T18:41:13.661Z,0.90
2022-11-05T18:43:41.163Z,1.20
2022-11-05T18:46:09.025Z,1.10
2022-11-05T18:48:36.553Z,1.70
2022-11-05T18:51:14.434Z,1.30
2022-11-05T18:53:42.855Z,1.33
2022-11-05T18:56:11.160Z,2.07
2022-11-05T18:58:38.610Z,1.80
2022-11-05T19:01:06.793Z,2.00
2022-11-05T19:03:34.240Z,1.73
2022-11-05T19:06:05.241Z,2.03
2022-11-05T19:08:33.244Z,2.00
2022-11-05T19:11:00.959Z,2.03
2022-11-05T19:13:28.373Z,1.80
2022-11-05T19:15:55.830Z,2.00
2022-11-05T19:18:23.241Z,2.03
2022-11-05T19:20:50.576Z,2.80
2022-11-05T19:23:17.920Z,2.20
2022-11-05T19:25:45.285Z,2.20
2022-11-05T19:28:12.876Z,2.07
2022-11-05T19:30:40.507Z,2.10
2022-11-05T19:33:07.776Z,2.20
2022-11-05T19:35:40.875Z,2.00
2022-11-05T19:38:08.595Z,2.30
2022-11-05T19:40:37.999Z,1.90
2022-11-05T19:43:05.632Z,1.97
2022-11-05T19:45:48.304Z,1.97
2022-11-05T19:48:19.433Z,1.97
2022-11-05T19:50:47.690Z,1.90
2022-11-05T19:53:15.073Z,2.17
2022-11-05T19:55:42.835Z,2.47
2022-11-05T19:58:10.959Z,2.20
2022-11-05T20:00:39.332Z,1.77
2022-11-05T20:03:06.937Z,2.00
2022-11-05T20:05:34.785Z,2.30
2022-11-05T20:08:02.228Z,2.53
2022-11-05T20:10:29.698Z,2.00
2022-11-05T20:12:57.217Z,2.20
2022-11-05T20:15:24.620Z,1.93
2022-11-05T20:17:53.124Z,1.80
2022-11-05T20:20:20.906Z,1.80
2022-11-05T20:22:48.246Z,2.10
2022-11-05T20:25:15.678Z,2.10
2022-11-05T20:27:43.134Z,1.83
2022-11-05T20:30:19.940Z,2.20
2022-11-05T20:32:47.275Z,2.00
2022-11-05T20:35:14.711Z,2.10
2022-11-05T20:37:42.077Z,2.10
2022-11-05T20:40:09.726Z,2.10
2022-11-05T20:42:37.603Z,1.93
2022-11-05T20:45:05.132Z,2.03
2022-11-05T20:47:32.799Z,1.80
2022-11-05T20:50:04.212Z,1.93
2022-11-05T20:52:31.527Z,1.47
2022-11-05T20:54:58.934Z,1.30
2022-11-05T20:57:26.539Z,1.10
2022-11-05T20:59:54.467Z,0.90
2022-11-05T21:02:22.083Z,0.80
2022-11-05T21:04:49.607Z,1.07
2022-11-05T21:07:16.985Z,0.70
2022-11-05T21:09:44.465Z,0.80
2022-11-05T21:12:11.885Z,0.80
2022-11-05T21:14:40.071Z,1.10
2022-11-05T21:17:08.455Z,1.10
2022-11-05T21:19:36.583Z,0.80
2022-11-05T21:22:04.766Z,0.70
2022-11-05T21:24:33.016Z,0.67
2022-11-05T21:27:00.845Z,0.97
2022-11-05T21:29:28.365Z,0.80
2022-11-05T21:31:55.706Z,0.47
2022-11-05T21:34:23.140Z,0.57
2022-11-05T21:36:51.599Z,0.70
2022-11-05T21:39:19.366Z,0.60
2022-11-05T21:41:46.800Z,0.70
2022-11-05T21:44:14.214Z,0.50
2022-11-05T21:46:41.656Z,0.50
2022-11-05T21:49:09.448Z,0.60
2022-11-05T21:51:55.205Z,0.50
2022-11-05T21:54:41.305Z,0.50
2022-11-05T21:57:31.324Z,0.47
2022-11-05T22:00:00.644Z,0.30
2022-11-05T22:02:28.727Z,0.50
2022-11-05T22:04:57.525Z,0.60
2022-11-05T22:07:26.845Z,0.50
2022-11-05T22:09:54.512Z,0.60
2022-11-05T22:12:22.397Z,0.50
2022-11-05T22:14:49.804Z,0.50
2022-11-05T22:17:17.324Z,0.60
2022-11-05T22:19:45.023Z,0.60
2022-11-05T22:22:12.855Z,0.53
2022-11-05T22:24:40.732Z,0.50
2022-11-05T22:27:12.905Z,0.30
2022-11-05T22:29:40.359Z,0.40
2022-11-05T22:32:10.813Z,0.50
2022-11-05T22:34:38.117Z,0.50
2022-11-05T22:37:05.678Z,0.70
2022-11-05T22:39:33.184Z,0.70
2022-11-05T22:42:04.327Z,0.53
2022-11-05T22:44:35.725Z,0.50
2022-11-05T22:47:03.152Z,0.60
2022-11-05T22:49:30.545Z,0.37
2022-11-05T22:51:58.014Z,0.60
2022-11-05T22:54:25.585Z,0.50
2022-11-05T22:56:53.897Z,0.60
2022-11-05T22:59:21.313Z,0.40
2022-11-05T23:01:48.774Z,0.60
2022-11-05T23:04:16.565Z,0.40
2022-11-05T23:07:02.659Z,0.60
2022-11-05T23:09:50.734Z,0.40
2022-11-05T23:12:24.096Z,0.60
2022-11-05T23:14:51.998Z,0.60
2022-11-05T23:17:38.175Z,0.60
2022-11-05T23:20:15.680Z,0.70
2022-11-05T23:23:01.743Z,0.50
2022-11-05T23:25:29.202Z,0.60
2022-11-05T23:27:57.303Z,0.50
2022-11-05T23:30:26.344Z,0.50
2022-11-05T23:32:54.073Z,0.50
2022-11-05T23:35:41.373Z,0.70
2022-11-05T23:38:27.905Z,0.47
2022-11-05T23:41:14.104Z,0.47
2022-11-05T23:44:00.389Z,0.60
2022-11-05T23:46:46.439Z,1.00
2022-11-05T23:49:13.865Z,0.40
2022-11-05T23:51:41.113Z,0.67
2022-11-05T23:54:08.468Z,0.60
2022-11-05T23:56:35.846Z,0.60
2022-11-05T23:59:04.886Z,0.50
